createdAt,value
2022-07-25T00:02:03.137Z,100479.22
2022-07-25T00:05:06.821Z,100472.97
2022-07-25T00:08:09.492Z,100466.97
2022-07-25T00:11:12.393Z,100466.41
2022-07-25T00:14:15.069Z,100473.66
2022-07-25T00:17:18.152Z,100476.19
2022-07-25T00:20:20.951Z,100474.56
2022-07-25T00:23:23.909Z,100475.66
2022-07-25T00:26:26.544Z,100471.69
2022-07-25T00:29:29.751Z,100473.53
2022-07-25T00:32:32.388Z,100472.22
2022-07-25T00:35:35.322Z,100474.84
2022-07-25T00:38:38.058Z,100480.91
2022-07-25T00:41:41.156Z,100481.34
2022-07-25T00:44:43.735Z,100475.78
2022-07-25T00:47:46.668Z,100489.38
2022-07-25T00:50:49.425Z,100481.63
2022-07-25T00:53:52.450Z,100483.53
2022-07-25T00:56:55.121Z,100478.59
2022-07-25T00:59:58.529Z,100483.09
2022-07-25T01:03:01.337Z,100483.28
2022-07-25T01:06:04.677Z,100488.75
2022-07-25T01:09:07.992Z,100488.47
2022-07-25T01:12:11.011Z,100488.13
2022-07-25T01:15:14.013Z,100483.78
2022-07-25T01:18:17.726Z,100487.28
2022-07-25T01:21:20.341Z,100469.69
2022-07-25T01:24:23.332Z,100479.72
2022-07-25T01:27:26.008Z,100482.22
2022-07-25T01:30:28.977Z,100480.63
2022-07-25T01:33:31.634Z,100480.91
2022-07-25T01:36:34.808Z,100479.28
2022-07-25T01:39:37.499Z,100484.81
2022-07-25T01:42:40.834Z,100477.66
2022-07-25T01:45:43.513Z,100469.59
2022-07-25T01:48:46.674Z,100476.81
2022-07-25T01:51:49.372Z,100475.38
2022-07-25T01:54:52.340Z,100480.94
2022-07-25T01:57:55.130Z,100475.84
2022-07-25T02:00:59.328Z,100473.75
2022-07-25T02:04:02.583Z,100483.09
2022-07-25T02:07:06.156Z,100482.00
2022-07-25T02:10:09.632Z,100480.53
2022-07-25T02:13:12.473Z,100471.34
2022-07-25T02:16:15.607Z,100476.56
2022-07-25T02:19:18.382Z,100473.56
2022-07-25T02:22:21.389Z,100472.72
2022-07-25T02:25:24.028Z,100480.63
2022-07-25T02:28:27.096Z,100478.88
2022-07-25T02:31:29.707Z,100476.22
2022-07-25T02:34:32.676Z,100474.78
2022-07-25T02:37:35.381Z,100465.78
2022-07-25T02:40:38.311Z,100465.72
2022-07-25T02:43:40.896Z,100466.56
2022-07-25T02:46:43.851Z,100468.84
2022-07-25T02:49:47.517Z,100464.88
2022-07-25T02:52:50.448Z,100470.03
2022-07-25T02:55:53.059Z,100469.31
2022-07-25T02:58:56.108Z,100473.91
2022-07-25T03:01:58.836Z,100471.59
2022-07-25T03:05:02.139Z,100469.00
2022-07-25T03:08:06.313Z,100475.47
2022-07-25T03:11:09.421Z,100463.34
2022-07-25T03:14:12.027Z,100476.66
2022-07-25T03:17:14.998Z,100481.56
2022-07-25T03:20:17.685Z,100469.62
2022-07-25T03:23:20.646Z,100468.09
2022-07-25T03:26:23.268Z,100471.56
2022-07-25T03:29:28.096Z,100477.56
2022-07-25T03:32:30.858Z,100476.84
2022-07-25T03:35:33.789Z,100474.44
2022-07-25T03:38:38.010Z,100476.00
2022-07-25T03:41:40.914Z,100482.44
2022-07-25T03:44:43.550Z,100475.50
2022-07-25T03:47:46.475Z,100477.94
2022-07-25T03:50:49.243Z,100472.81
2022-07-25T03:54:05.450Z,100474.47
2022-07-25T03:57:08.340Z,100460.00
2022-07-25T04:00:12.599Z,100481.50
2022-07-25T04:03:15.665Z,100471.66
2022-07-25T04:06:18.741Z,100476.00
2022-07-25T04:09:22.204Z,100474.56
2022-07-25T04:12:24.892Z,100464.72
2022-07-25T04:15:27.947Z,100484.44
2022-07-25T04:18:34.231Z,100487.09
2022-07-25T04:21:37.293Z,100485.22
2022-07-25T04:24:40.165Z,100465.78
2022-07-25T04:27:43.413Z,100486.56
2022-07-25T04:30:46.358Z,100483.41
2022-07-25T04:33:49.668Z,100489.25
2022-07-25T04:36:52.399Z,100491.97
2022-07-25T04:39:55.635Z,100491.19
2022-07-25T04:42:58.261Z,100490.66
2022-07-25T04:46:02.096Z,100481.72
2022-07-25T04:49:04.952Z,100502.31
2022-07-25T04:52:07.969Z,100495.75
2022-07-25T04:55:11.237Z,100504.63
2022-07-25T04:58:14.427Z,100482.94
2022-07-25T05:01:17.262Z,100513.47
2022-07-25T05:04:20.250Z,100503.00
2022-07-25T05:07:22.866Z,100507.81
2022-07-25T05:10:27.797Z,100514.75
2022-07-25T05:13:30.465Z,100504.13
2022-07-25T05:16:33.422Z,100508.06
2022-07-25T05:19:36.174Z,100495.13
2022-07-25T05:22:39.318Z,100500.50
2022-07-25T05:25:42.011Z,100495.59
2022-07-25T05:28:45.042Z,100510.28
2022-07-25T05:31:47.808Z,100509.78
2022-07-25T05:34:50.912Z,100503.53
2022-07-25T05:37:53.628Z,100498.69
2022-07-25T05:40:56.842Z,100505.78
2022-07-25T05:43:59.460Z,100502.25
2022-07-25T05:47:02.571Z,100507.75
2022-07-25T05:50:05.538Z,100504.22
2022-07-25T05:53:08.929Z,100500.50
2022-07-25T05:56:11.600Z,100506.66
2022-07-25T05:59:15.157Z,100512.06
2022-07-25T06:02:17.933Z,100505.31
2022-07-25T06:05:20.935Z,100506.06
2022-07-25T06:08:23.988Z,100512.84
2022-07-25T06:11:30.638Z,100510.41
2022-07-25T06:14:33.873Z,100513.31
2022-07-25T06:17:36.906Z,100513.62
2022-07-25T06:20:39.532Z,100497.69
2022-07-25T06:23:42.614Z,100510.50
2022-07-25T06:26:45.332Z,100508.63
2022-07-25T06:29:48.521Z,100504.13
2022-07-25T06:32:51.263Z,100495.88
2022-07-25T06:35:54.289Z,100494.94
2022-07-25T06:38:56.972Z,100483.66
2022-07-25T06:42:00.325Z,100494.56
2022-07-25T06:45:09.667Z,100491.75
2022-07-25T06:48:13.494Z,100494.47
2022-07-25T06:51:16.370Z,100494.47
2022-07-25T06:54:19.380Z,100493.69
2022-07-25T06:57:22.007Z,100491.56
2022-07-25T07:00:25.471Z,100488.91
2022-07-25T07:03:28.446Z,100482.91
2022-07-25T07:06:31.667Z,100476.22
2022-07-25T07:09:34.526Z,100468.22
2022-07-25T07:12:37.649Z,100471.16
2022-07-25T07:15:50.301Z,100478.81
2022-07-25T07:18:53.544Z,100477.66
2022-07-25T07:21:56.172Z,100471.25
2022-07-25T07:24:59.468Z,100470.06
2022-07-25T07:28:02.338Z,100476.03
2022-07-25T07:31:16.105Z,100468.19
2022-07-25T07:34:19.678Z,100470.75
2022-07-25T07:37:22.817Z,100461.41
2022-07-25T07:40:26.903Z,100465.13
2022-07-25T07:43:32.004Z,100469.28
2022-07-25T07:46:34.871Z,100460.34
2022-07-25T07:49:38.162Z,100465.91
2022-07-25T07:52:41.368Z,100472.50
2022-07-25T07:55:44.519Z,100463.25
2022-07-25T07:58:47.412Z,100469.53
2022-07-25T08:01:50.494Z,100461.47
2022-07-25T08:04:53.470Z,100464.75
2022-07-25T08:07:56.248Z,100467.50
2022-07-25T08:10:59.995Z,100468.88
2022-07-25T08:14:04.947Z,100473.31
2022-07-25T08:17:08.067Z,100468.44
2022-07-25T08:20:36.892Z,100466.06
2022-07-25T08:23:39.824Z,100468.72
2022-07-25T08:26:42.630Z,100468.81
2022-07-25T08:29:45.579Z,100468.03
2022-07-25T08:32:51.354Z,100467.34
2022-07-25T08:35:55.749Z,100466.06
2022-07-25T08:38:58.435Z,100471.97
2022-07-25T08:42:05.468Z,100468.84
2022-07-25T08:45:19.653Z,100475.47
2022-07-25T08:48:25.117Z,100474.63
2022-07-25T08:51:28.712Z,100466.91
2022-07-25T08:54:31.902Z,100465.25
2022-07-25T08:57:35.881Z,100464.44
2022-07-25T09:00:39.360Z,100459.16
2022-07-25T09:03:43.452Z,100463.09
2022-07-25T09:06:51.442Z,100464.78
2022-07-25T09:09:54.141Z,100459.97
2022-07-25T09:13:11.041Z,100455.41
2022-07-25T09:16:13.918Z,100462.44
2022-07-25T09:19:23.238Z,100449.12
2022-07-25T09:22:26.022Z,100466.38
2022-07-25T09:25:30.013Z,100439.91
2022-07-25T09:28:40.144Z,100439.53
2022-07-25T09:31:43.217Z,100439.28
2022-07-25T09:34:47.826Z,100444.97
2022-07-25T09:37:50.692Z,100440.34
2022-07-25T09:40:59.024Z,100444.63
2022-07-25T09:44:02.043Z,100441.28
2022-07-25T09:47:12.422Z,100427.13
2022-07-25T09:50:18.693Z,100436.69
2022-07-25T09:53:21.397Z,100436.16
2022-07-25T09:56:24.365Z,100432.06
2022-07-25T09:59:27.028Z,100417.13
2022-07-25T10:02:48.587Z,100432.59
2022-07-25T10:06:21.597Z,100431.13
2022-07-25T10:09:24.431Z,100430.72
2022-07-25T10:12:27.734Z,100427.41
2022-07-25T10:15:43.923Z,100417.34
2022-07-25T10:18:49.707Z,100422.34
2022-07-25T10:21:56.000Z,100407.03
2022-07-25T10:25:10.666Z,100407.56
2022-07-25T10:28:20.213Z,100403.19
2022-07-25T10:31:31.978Z,100398.56
2022-07-25T10:34:35.279Z,100392.63
2022-07-25T10:37:38.332Z,100395.44
2022-07-25T10:40:46.612Z,100381.19
2022-07-25T10:43:50.876Z,100373.34
2022-07-25T10:47:14.571Z,100374.56
2022-07-25T10:50:34.774Z,100371.56
2022-07-25T10:53:48.413Z,100367.94
2022-07-25T10:56:54.674Z,100358.53
2022-07-25T11:00:06.475Z,100352.81
2022-07-25T11:03:13.425Z,100369.66
2022-07-25T11:06:37.129Z,100363.28
2022-07-25T11:09:42.832Z,100364.59
2022-07-25T11:12:45.594Z,100345.09
2022-07-25T11:15:48.668Z,100333.00
2022-07-25T11:18:51.264Z,100342.78
2022-07-25T11:21:56.853Z,100339.53
2022-07-25T11:25:00.561Z,100330.88
2022-07-25T11:28:04.079Z,100323.44
2022-07-25T11:31:07.245Z,100316.47
2022-07-25T11:34:10.362Z,100319.84
2022-07-25T11:37:14.661Z,100316.03
2022-07-25T11:40:19.573Z,100309.22
2022-07-25T11:43:23.387Z,100303.50
2022-07-25T11:46:26.447Z,100300.97
2022-07-25T11:49:29.530Z,100295.00
2022-07-25T11:52:34.812Z,100299.38
2022-07-25T11:55:42.502Z,100279.22
2022-07-25T11:59:00.037Z,100268.69
2022-07-25T12:02:02.802Z,100269.19
2022-07-25T12:05:11.529Z,100263.19
2022-07-25T12:08:19.468Z,100274.59
2022-07-25T12:11:23.503Z,100265.88
2022-07-25T12:14:26.358Z,100254.19
2022-07-25T12:17:29.374Z,100248.28
2022-07-25T12:20:34.270Z,100246.81
2022-07-25T12:23:39.003Z,100247.00
2022-07-25T12:26:41.692Z,100242.47
2022-07-25T12:29:44.777Z,100246.69
2022-07-25T12:32:47.411Z,100232.41
2022-07-25T12:35:50.404Z,100219.94
2022-07-25T12:38:53.097Z,100210.53
2022-07-25T12:41:56.068Z,100216.78
2022-07-25T12:44:58.677Z,100201.19
2022-07-25T12:48:01.621Z,100207.44
2022-07-25T12:51:04.260Z,100205.53
2022-07-25T12:54:07.792Z,100189.91
2022-07-25T12:57:12.487Z,100199.78
2022-07-25T13:00:19.144Z,100189.47
2022-07-25T13:03:21.806Z,100180.13
2022-07-25T13:06:24.866Z,100177.72
2022-07-25T13:09:28.169Z,100178.38
2022-07-25T13:12:31.273Z,100173.00
2022-07-25T13:15:34.215Z,100146.06
2022-07-25T13:18:37.462Z,100165.13
2022-07-25T13:21:40.409Z,100149.94
2022-07-25T13:24:43.702Z,100148.97
2022-07-25T13:27:48.560Z,100139.63
2022-07-25T13:30:51.722Z,100144.59
2022-07-25T13:33:54.400Z,100140.06
2022-07-25T13:36:57.513Z,100132.66
2022-07-25T13:40:00.129Z,100132.44
2022-07-25T13:43:03.013Z,100123.19
2022-07-25T13:46:05.947Z,100115.81
2022-07-25T13:49:09.335Z,100107.94
2022-07-25T13:52:12.462Z,100105.97
2022-07-25T13:55:15.601Z,100106.22
2022-07-25T13:58:18.344Z,100100.50
2022-07-25T14:01:21.338Z,100098.47
2022-07-25T14:04:24.601Z,100098.19
2022-07-25T14:07:27.305Z,100095.25
2022-07-25T14:10:30.296Z,100091.87
2022-07-25T14:13:33.100Z,100086.75
2022-07-25T14:16:36.135Z,100086.78
2022-07-25T14:19:38.857Z,100088.44
2022-07-25T14:22:44.073Z,100079.06
2022-07-25T14:25:46.803Z,100076.44
2022-07-25T14:28:50.000Z,100063.28
2022-07-25T14:31:52.906Z,100072.75
2022-07-25T14:34:55.932Z,100063.19
2022-07-25T14:37:58.916Z,100063.28
2022-07-25T14:41:01.897Z,100064.31
2022-07-25T14:44:04.851Z,100055.91
2022-07-25T14:47:12.255Z,100056.97
2022-07-25T14:50:15.830Z,100056.56
2022-07-25T14:53:18.726Z,100045.47
2022-07-25T14:56:21.677Z,100040.13
2022-07-25T14:59:24.891Z,100038.25
2022-07-25T15:02:28.363Z,100051.44
2022-07-25T15:05:31.259Z,100037.66
2022-07-25T15:08:33.980Z,100028.91
2022-07-25T15:11:37.342Z,100030.59
2022-07-25T15:14:41.734Z,100024.72
2022-07-25T15:17:44.673Z,100020.13
2022-07-25T15:20:48.699Z,100025.56
2022-07-25T15:23:53.944Z,100013.34
2022-07-25T15:26:58.135Z,100010.50
2022-07-25T15:30:01.150Z,100003.09
2022-07-25T15:33:03.989Z,99998.91
2022-07-25T15:36:07.287Z,99998.28
2022-07-25T15:39:10.341Z,99999.19
2022-07-25T15:42:13.599Z,99985.91
2022-07-25T15:45:32.524Z,99993.91
2022-07-25T15:48:36.517Z,99987.44
2022-07-25T15:51:39.349Z,99989.44
2022-07-25T15:54:42.263Z,99989.53
2022-07-25T15:57:44.928Z,99983.97
2022-07-25T16:00:47.914Z,99979.09
2022-07-25T16:03:50.906Z,99986.69
2022-07-25T16:06:53.657Z,99971.25
2022-07-25T16:09:57.264Z,99974.38
2022-07-25T16:13:00.907Z,99970.37
2022-07-25T16:16:04.788Z,99976.72
2022-07-25T16:19:09.535Z,99977.97
2022-07-25T16:22:12.959Z,99979.63
2022-07-25T16:25:15.793Z,99973.50
2022-07-25T16:28:18.996Z,99964.16
2022-07-25T16:31:22.019Z,99950.97
2022-07-25T16:34:29.072Z,99967.69
2022-07-25T16:37:31.899Z,99970.06
2022-07-25T16:40:35.742Z,99966.06
2022-07-25T16:43:38.395Z,99960.12
2022-07-25T16:46:41.659Z,99957.16
2022-07-25T16:49:44.315Z,99959.59
2022-07-25T16:52:47.363Z,99958.38
2022-07-25T16:55:49.952Z,99960.56
2022-07-25T16:58:53.908Z,99960.31
2022-07-25T17:01:56.588Z,99955.25
2022-07-25T17:04:59.941Z,99959.59
2022-07-25T17:08:02.837Z,99964.53
2022-07-25T17:11:06.106Z,99947.75
2022-07-25T17:14:08.716Z,99952.81
2022-07-25T17:17:12.108Z,99956.31
2022-07-25T17:20:15.293Z,99956.78
2022-07-25T17:23:18.299Z,99946.84
2022-07-25T17:26:26.256Z,99956.22
2022-07-25T17:29:29.824Z,99952.44
2022-07-25T17:32:32.403Z,99945.63
2022-07-25T17:35:35.416Z,99960.06
2022-07-25T17:38:39.711Z,99954.00
2022-07-25T17:41:42.801Z,99961.78
2022-07-25T17:44:45.419Z,99961.59
2022-07-25T17:47:48.776Z,99963.06
2022-07-25T17:50:52.544Z,99954.94
2022-07-25T17:53:55.631Z,99952.78
2022-07-25T17:56:58.567Z,99952.63
2022-07-25T18:00:01.851Z,99950.63
2022-07-25T18:03:14.335Z,99965.09
2022-07-25T18:06:17.543Z,99957.44
2022-07-25T18:09:24.208Z,99939.97
2022-07-25T18:12:29.508Z,99951.78
2022-07-25T18:15:32.335Z,99945.63
2022-07-25T18:18:35.507Z,99945.56
2022-07-25T18:21:38.169Z,99941.94
2022-07-25T18:24:41.332Z,99943.47
2022-07-25T18:27:46.041Z,99941.00
2022-07-25T18:30:49.160Z,99946.38
2022-07-25T18:33:51.845Z,99950.72
2022-07-25T18:36:54.963Z,99948.34
2022-07-25T18:39:57.776Z,99950.53
2022-07-25T18:43:00.734Z,99953.31
2022-07-25T18:46:06.710Z,99951.78
2022-07-25T18:49:13.084Z,99956.34
2022-07-25T18:52:15.798Z,99951.06
2022-07-25T18:55:18.765Z,99957.56
2022-07-25T18:58:21.545Z,99959.75
2022-07-25T19:01:24.719Z,99958.44
2022-07-25T19:04:27.627Z,99960.66
2022-07-25T19:07:31.373Z,99955.66
2022-07-25T19:10:34.287Z,99956.56
2022-07-25T19:13:51.190Z,99963.06
2022-07-25T19:16:54.834Z,99962.09
2022-07-25T19:20:01.949Z,99965.31
2022-07-25T19:23:04.580Z,99958.22
2022-07-25T19:26:08.741Z,99959.91
2022-07-25T19:29:11.521Z,99958.75
2022-07-25T19:32:16.023Z,99955.75
2022-07-25T19:35:26.113Z,99963.66
2022-07-25T19:38:29.857Z,99962.53
2022-07-25T19:41:32.860Z,99955.91
2022-07-25T19:44:37.048Z,99951.66
2022-07-25T19:47:39.849Z,99953.13
2022-07-25T19:50:42.892Z,99950.84
2022-07-25T19:53:45.512Z,99951.69
2022-07-25T19:56:48.525Z,99952.84
2022-07-25T19:59:51.202Z,99951.69
2022-07-25T20:02:54.447Z,99945.09
2022-07-25T20:05:57.419Z,99950.72
2022-07-25T20:09:00.225Z,99949.63
2022-07-25T20:12:03.774Z,99943.22
2022-07-25T20:15:06.874Z,99953.53
2022-07-25T20:18:09.938Z,99947.59
2022-07-25T20:21:13.146Z,99949.38
2022-07-25T20:24:21.188Z,99926.72
2022-07-25T20:27:24.364Z,99934.06
2022-07-25T20:30:31.565Z,99948.91
2022-07-25T20:33:37.325Z,99945.53
2022-07-25T20:36:40.348Z,99945.47
2022-07-25T20:39:43.049Z,99945.47
2022-07-25T20:42:46.105Z,99944.38
2022-07-25T20:45:48.867Z,99945.72
2022-07-25T20:48:51.952Z,99950.59
2022-07-25T20:51:54.910Z,99946.59
2022-07-25T20:54:57.870Z,99943.97
2022-07-25T20:58:00.949Z,99953.78
2022-07-25T21:01:04.004Z,99953.91
2022-07-25T21:04:07.936Z,99959.53
2022-07-25T21:07:10.998Z,99956.91
2022-07-25T21:10:14.191Z,99953.34
2022-07-25T21:13:18.534Z,99953.34
2022-07-25T21:16:21.798Z,99950.56
2022-07-25T21:19:24.756Z,99941.56
2022-07-25T21:22:27.701Z,99951.84
2022-07-25T21:25:30.745Z,99959.47
2022-07-25T21:28:33.672Z,99959.91
2022-07-25T21:31:37.467Z,99956.00
2022-07-25T21:34:41.228Z,99961.00
2022-07-25T21:37:44.276Z,99959.91
2022-07-25T21:40:47.101Z,99966.91
2022-07-25T21:43:50.049Z,99966.72
2022-07-25T21:46:53.106Z,99961.44
2022-07-25T21:50:19.216Z,99952.88
2022-07-25T21:53:27.543Z,99951.50
2022-07-25T21:56:30.859Z,99959.56
2022-07-25T21:59:33.581Z,99959.88
2022-07-25T22:02:36.596Z,99953.50
2022-07-25T22:05:39.640Z,99952.56
2022-07-25T22:08:42.289Z,99951.16
2022-07-25T22:11:46.728Z,99957.34
2022-07-25T22:14:49.454Z,99955.81
2022-07-25T22:17:52.558Z,99946.16
2022-07-25T22:20:55.384Z,99948.37
2022-07-25T22:23:58.569Z,99947.44
2022-07-25T22:27:01.335Z,99921.41
2022-07-25T22:30:05.884Z,99949.09
2022-07-25T22:33:08.956Z,99944.00
2022-07-25T22:36:12.019Z,99941.19
2022-07-25T22:39:15.809Z,99936.53
2022-07-25T22:42:18.945Z,99917.97
2022-07-25T22:45:23.960Z,99917.19
2022-07-25T22:48:27.121Z,99934.06
2022-07-25T22:51:30.282Z,99936.25
2022-07-25T22:54:34.095Z,99939.41
2022-07-25T22:57:37.739Z,99934.00
2022-07-25T23:00:40.836Z,99935.62
2022-07-25T23:03:43.551Z,99939.50
2022-07-25T23:06:46.787Z,99942.72
2022-07-25T23:09:49.417Z,99932.78
2022-07-25T23:12:52.434Z,99925.00
2022-07-25T23:15:55.118Z,99929.00
2022-07-25T23:18:58.177Z,99924.22
2022-07-25T23:22:00.905Z,99927.00
2022-07-25T23:25:04.505Z,99934.13
2022-07-25T23:28:07.453Z,99926.94
2022-07-25T23:31:10.457Z,99933.28
2022-07-25T23:34:13.189Z,99932.19
2022-07-25T23:37:16.290Z,99941.81
2022-07-25T23:40:19.013Z,99933.41
2022-07-25T23:43:55.498Z,99917.22
2022-07-25T23:46:45.809Z,99937.56
2022-07-25T23:49:49.704Z,99939.59
2022-07-25T23:52:52.459Z,99943.16
2022-07-25T23:55:55.430Z,99934.16
2022-07-25T23:58:58.128Z,99938.16
